Homestead, Florida
Current Conditions -  °F | °C
As of 3:58 PM on Wednesday 17 Dec 2014 (Local Time) from KHST Reporting Station
Clear Clear  
Wind Chill: 77°   Ceiling: Unl
Heat Index: 78°   Visibility: 10mi
Dew Point: 54°   Wind: 7mph
Humidity: 45%   Direction: 110°ESE
Pressure: 30.1"   Gusts: NA
Location:  25.48°N, 80.46°W
Report Text: KHST 172058Z AUTO 11006KT 10SM CLR 25/12 A3010 RMK AO2 SLP196 T02490121 56012 $
Loading
Personal Weather Stations






























Interactive Weather Map New forecast layout! Learn more

10-Day Weather Forecast

Advertisements
Track Severe Weather on mobile